Time;durP1;ratioP1;P1;durP2;ratioP2;P2;SDS_P1;SDS_P2;PMS_P1;PMS_P2;Temp;Humidity;BMP_temperature;BMP_pressure;BME280_temperature;BME280_humidity;BME280_pressure;Samples;Min_cycle;Max_cycle;Signal;HPM_P1;HPM_P2
2023/12/04 00:00:15;;;;;;;15.73;8.70;;;;;;;;;;5027863;28;20295;-31
2023/12/04 00:02:42;;;;;;;11.50;7.33;;;;;;;;;;5022637;28;20214;-29
2023/12/04 00:05:11;;;;;;;11.37;7.80;;;;;;;;;;5029276;28;20701;-29
2023/12/04 00:07:38;;;;;;;14.00;8.70;;;;;;;;;;5014513;28;20298;-27
2023/12/04 00:10:05;;;;;;;16.63;8.50;;;;;;;;;;5026889;28;20237;-27
2023/12/04 00:12:33;;;;;;;12.73;8.00;;;;;;;;;;5029569;28;20214;-36
2023/12/04 00:15:00;;;;;;;14.33;7.67;;;;;;;;;;5029458;28;20239;-27
2023/12/04 00:17:27;;;;;;;15.33;8.07;;;;;;;;;;5019999;28;20242;-28
2023/12/04 00:19:55;;;;;;;16.23;8.87;;;;;;;;;;5029010;28;20207;-29
2023/12/04 00:22:24;;;;;;;12.93;7.60;;;;;;;;;;5016839;28;20229;-29
2023/12/04 00:24:51;;;;;;;16.17;8.43;;;;;;;;;;5025342;28;20284;-27
2023/12/04 00:27:19;;;;;;;13.83;7.83;;;;;;;;;;5029605;28;20210;-29
2023/12/04 00:29:46;;;;;;;16.53;8.67;;;;;;;;;;5029695;28;20271;-28
2023/12/04 00:32:13;;;;;;;13.43;7.67;;;;;;;;;;5019684;28;20537;-28
2023/12/04 00:34:40;;;;;;;14.27;7.33;;;;;;;;;;5023241;28;20313;-27
2023/12/04 00:37:07;;;;;;;13.43;8.40;;;;;;;;;;5018442;28;20633;-28
2023/12/04 00:39:36;;;;;;;12.50;7.63;;;;;;;;;;5029793;28;20257;-28
2023/12/04 00:42:04;;;;;;;10.40;6.87;;;;;;;;;;5029508;28;20245;-27
2023/12/04 00:44:31;;;;;;;13.70;7.60;;;;;;;;;;5029708;28;20258;-29
2023/12/04 00:46:58;;;;;;;13.90;7.77;;;;;;;;;;5018628;28;20557;-29
2023/12/04 00:49:25;;;;;;;12.77;7.27;;;;;;;;;;5024954;28;20236;-27
2023/12/04 00:51:53;;;;;;;11.70;7.07;;;;;;;;;;5020991;28;20238;-29
2023/12/04 00:54:20;;;;;;;11.13;6.87;;;;;;;;;;5028333;28;20350;-29
2023/12/04 00:56:48;;;;;;;9.13;6.50;;;;;;;;;;5029176;28;20203;-29
2023/12/04 00:59:16;;;;;;;15.20;8.47;;;;;;;;;;5027371;28;20210;-29
2023/12/04 01:01:43;;;;;;;13.37;6.90;;;;;;;;;;5017142;28;20302;-29
2023/12/04 01:04:10;;;;;;;12.60;7.57;;;;;;;;;;5026131;28;20653;-29
2023/12/04 01:06:37;;;;;;;14.13;7.57;;;;;;;;;;5017351;28;20605;-29
2023/12/04 01:09:04;;;;;;;13.90;7.50;;;;;;;;;;5020660;28;20241;-27
2023/12/04 01:11:32;;;;;;;12.17;7.57;;;;;;;;;;5028348;28;20755;-40
2023/12/04 01:14:00;;;;;;;11.43;6.70;;;;;;;;;;5027861;28;20606;-28
2023/12/04 01:16:28;;;;;;;11.00;6.23;;;;;;;;;;5020626;28;20325;-30
2023/12/04 01:18:55;;;;;;;10.37;6.43;;;;;;;;;;5021427;28;20211;-28
2023/12/04 01:21:23;;;;;;;9.63;6.60;;;;;;;;;;5022759;28;20234;-27
2023/12/04 01:23:50;;;;;;;11.23;6.97;;;;;;;;;;5022951;28;20256;-29
2023/12/04 01:26:17;;;;;;;10.37;6.73;;;;;;;;;;5028196;28;20202;-29
2023/12/04 01:28:44;;;;;;;10.07;6.17;;;;;;;;;;5023958;28;20313;-28
2023/12/04 01:31:13;;;;;;;11.60;6.63;;;;;;;;;;5021630;28;20277;-35
2023/12/04 01:33:40;;;;;;;13.20;6.90;;;;;;;;;;5028869;28;20257;-28
2023/12/04 01:36:08;;;;;;;10.77;5.90;;;;;;;;;;5018524;28;20265;-29
2023/12/04 01:38:35;;;;;;;8.80;5.27;;;;;;;;;;5024615;28;20285;-28
2023/12/04 01:41:02;;;;;;;12.73;6.87;;;;;;;;;;5028345;28;20242;-27
2023/12/04 01:43:29;;;;;;;9.87;6.27;;;;;;;;;;5024079;28;20207;-28
2023/12/04 01:45:57;;;;;;;8.47;5.43;;;;;;;;;;5015967;28;20211;-29
2023/12/04 01:48:26;;;;;;;10.97;7.10;;;;;;;;;;5027702;28;20219;-28
2023/12/04 01:50:54;;;;;;;10.87;7.43;;;;;;;;;;5021138;28;20362;-28
2023/12/04 01:53:21;;;;;;;9.50;5.70;;;;;;;;;;5027198;28;20268;-28
2023/12/04 01:55:48;;;;;;;11.87;7.37;;;;;;;;;;5029854;28;20290;-27
2023/12/04 01:58:15;;;;;;;11.23;6.37;;;;;;;;;;5031125;28;20286;-27
2023/12/04 02:00:43;;;;;;;9.33;6.23;;;;;;;;;;5017111;28;20215;-29
2023/12/04 02:03:10;;;;;;;10.00;5.63;;;;;;;;;;5016776;28;20305;-27
2023/12/04 02:05:40;;;;;;;9.70;5.73;;;;;;;;;;5019664;28;20281;-27
2023/12/04 02:08:07;;;;;;;10.97;6.47;;;;;;;;;;5016890;28;20305;-29
2023/12/04 02:10:34;;;;;;;9.83;5.50;;;;;;;;;;5019750;28;20296;-28
2023/12/04 02:13:01;;;;;;;12.60;6.57;;;;;;;;;;5031209;28;20221;-28
2023/12/04 02:15:29;;;;;;;9.77;6.53;;;;;;;;;;5026435;28;20633;-28
2023/12/04 02:17:56;;;;;;;10.50;5.67;;;;;;;;;;5026995;28;20230;-28
2023/12/04 02:20:32;;;;;;;8.60;5.73;;;;;;;;;;5028598;28;20202;-26
2023/12/04 02:23:00;;;;;;;11.07;7.20;;;;;;;;;;5022461;28;20309;-28
2023/12/04 02:25:29;;;;;;;11.00;6.57;;;;;;;;;;5030843;28;20579;-29
2023/12/04 02:27:58;;;;;;;10.60;6.57;;;;;;;;;;5032081;28;20210;-28
2023/12/04 02:30:26;;;;;;;10.03;5.47;;;;;;;;;;5022560;28;20539;-29
2023/12/04 02:32:53;;;;;;;10.07;6.50;;;;;;;;;;5026200;28;20476;-29
2023/12/04 02:35:22;;;;;;;10.63;6.67;;;;;;;;;;5027626;28;20233;-29
2023/12/04 02:37:50;;;;;;;10.60;6.60;;;;;;;;;;5021875;28;20661;-27
2023/12/04 02:40:17;;;;;;;7.27;5.30;;;;;;;;;;5029026;28;20293;-26
2023/12/04 02:42:46;;;;;;;11.43;5.70;;;;;;;;;;5031282;28;20290;-29
2023/12/04 02:45:13;;;;;;;12.90;6.20;;;;;;;;;;5023223;28;20696;-36
2023/12/04 02:47:40;;;;;;;12.37;6.70;;;;;;;;;;5026153;28;20229;-28
2023/12/04 02:50:08;;;;;;;12.43;7.30;;;;;;;;;;5031111;28;20230;-27
2023/12/04 02:52:35;;;;;;;11.63;6.47;;;;;;;;;;5016915;28;20290;-28
2023/12/04 02:55:03;;;;;;;11.87;6.33;;;;;;;;;;5031793;28;20234;-28
2023/12/04 02:57:30;;;;;;;14.50;6.77;;;;;;;;;;5021018;28;20230;-29
2023/12/04 02:59:58;;;;;;;12.43;6.10;;;;;;;;;;5024847;28;20207;-28
2023/12/04 03:02:26;;;;;;;11.90;6.63;;;;;;;;;;5022246;28;20203;-28
2023/12/04 03:04:53;;;;;;;10.57;6.10;;;;;;;;;;5022107;28;20219;-28
2023/12/04 03:07:21;;;;;;;10.77;6.00;;;;;;;;;;5018084;28;20210;-29
2023/12/04 03:09:48;;;;;;;11.13;6.50;;;;;;;;;;5023150;28;20273;-29
2023/12/04 03:12:15;;;;;;;11.00;5.97;;;;;;;;;;5028166;28;20263;-28
2023/12/04 03:14:42;;;;;;;12.30;5.80;;;;;;;;;;5027137;28;20318;-27
2023/12/04 03:17:11;;;;;;;8.63;5.20;;;;;;;;;;5017385;28;20208;-29
2023/12/04 03:19:38;;;;;;;10.90;5.73;;;;;;;;;;5023382;28;20199;-29
2023/12/04 03:22:05;;;;;;;10.73;6.30;;;;;;;;;;5024800;28;20590;-31
2023/12/04 03:24:33;;;;;;;8.57;5.87;;;;;;;;;;5031716;28;20681;-29
2023/12/04 03:27:00;;;;;;;12.37;6.13;;;;;;;;;;5031973;28;20234;-29
2023/12/04 03:29:27;;;;;;;11.60;6.57;;;;;;;;;;5028186;28;20296;-27
2023/12/04 03:31:54;;;;;;;9.73;6.10;;;;;;;;;;5023558;28;20207;-29
2023/12/04 03:34:23;;;;;;;9.60;6.67;;;;;;;;;;5028271;28;20257;-28
2023/12/04 03:36:50;;;;;;;13.83;7.03;;;;;;;;;;5020344;28;20293;-30
2023/12/04 03:39:17;;;;;;;7.40;5.50;;;;;;;;;;5022121;28;20256;-28
2023/12/04 03:41:45;;;;;;;11.83;6.63;;;;;;;;;;5031879;28;20269;-28
2023/12/04 03:44:12;;;;;;;11.17;6.40;;;;;;;;;;5030685;28;20233;-26
2023/12/04 03:46:39;;;;;;;8.57;5.67;;;;;;;;;;5019767;28;20211;-29
2023/12/04 03:49:07;;;;;;;8.10;5.60;;;;;;;;;;5030287;28;20875;-29
2023/12/04 03:51:35;;;;;;;9.00;4.50;;;;;;;;;;5023632;28;20272;-29
2023/12/04 03:54:03;;;;;;;9.83;5.37;;;;;;;;;;5024900;28;20226;-27
2023/12/04 03:56:30;;;;;;;9.00;5.07;;;;;;;;;;5032172;28;20214;-27
2023/12/04 03:58:57;;;;;;;8.47;5.37;;;;;;;;;;5031583;28;20256;-27
2023/12/04 04:01:24;;;;;;;7.37;4.13;;;;;;;;;;5021823;28;20210;-28
2023/12/04 04:03:51;;;;;;;10.27;5.77;;;;;;;;;;5033500;28;20230;-27
2023/12/04 04:06:19;;;;;;;8.97;6.17;;;;;;;;;;5021993;28;20219;-29
2023/12/04 04:08:47;;;;;;;8.73;5.77;;;;;;;;;;5032977;28;20654;-28
2023/12/04 04:11:14;;;;;;;9.67;6.23;;;;;;;;;;5033295;28;20270;-29
2023/12/04 04:13:41;;;;;;;10.37;5.33;;;;;;;;;;5032121;28;20222;-29
2023/12/04 04:16:09;;;;;;;8.77;5.30;;;;;;;;;;5025583;28;20211;-27
2023/12/04 04:18:36;;;;;;;9.17;5.33;;;;;;;;;;5022692;28;20202;-28
2023/12/04 04:21:03;;;;;;;8.87;6.43;;;;;;;;;;5021634;28;20295;-29
2023/12/04 04:23:31;;;;;;;10.83;6.23;;;;;;;;;;5021175;28;20385;-27
2023/12/04 04:25:59;;;;;;;7.90;4.37;;;;;;;;;;5029848;28;20209;-28
2023/12/04 04:28:26;;;;;;;5.60;4.03;;;;;;;;;;5030014;28;20301;-29
2023/12/04 04:30:53;;;;;;;6.87;5.53;;;;;;;;;;5024934;28;20226;-28
2023/12/04 04:33:21;;;;;;;9.97;5.80;;;;;;;;;;5025770;28;20814;-29
2023/12/04 04:35:48;;;;;;;9.03;5.63;;;;;;;;;;5024376;28;20217;-28
2023/12/04 04:38:15;;;;;;;9.83;6.10;;;;;;;;;;5012020;28;20207;-28
2023/12/04 04:40:43;;;;;;;8.43;5.37;;;;;;;;;;5032223;28;20289;-29
2023/12/04 04:43:12;;;;;;;7.67;5.67;;;;;;;;;;5031589;28;20711;-27
2023/12/04 04:45:40;;;;;;;7.47;5.37;;;;;;;;;;5023840;28;20661;-31
2023/12/04 04:48:07;;;;;;;9.33;5.77;;;;;;;;;;5024479;28;20230;-28
2023/12/04 04:50:34;;;;;;;7.67;5.50;;;;;;;;;;5025344;28;20309;-29
2023/12/04 04:53:01;;;;;;;9.23;5.37;;;;;;;;;;5022085;28;20203;-29
2023/12/04 04:55:30;;;;;;;10.97;5.93;;;;;;;;;;5028861;28;20227;-29
2023/12/04 04:57:57;;;;;;;9.33;6.03;;;;;;;;;;5029376;28;20293;-29
2023/12/04 05:00:26;;;;;;;9.40;6.20;;;;;;;;;;5026056;28;20202;-28
2023/12/04 05:02:53;;;;;;;10.23;6.70;;;;;;;;;;5024784;28;20203;-27
2023/12/04 05:05:20;;;;;;;8.10;5.27;;;;;;;;;;5025587;28;20225;-27
2023/12/04 05:07:47;;;;;;;8.73;5.80;;;;;;;;;;5018440;28;20638;-27
2023/12/04 05:10:14;;;;;;;8.10;5.10;;;;;;;;;;5027031;28;20226;-28
2023/12/04 05:12:41;;;;;;;11.20;6.23;;;;;;;;;;5028673;28;20572;-29
2023/12/04 05:15:09;;;;;;;8.70;5.13;;;;;;;;;;5024139;28;20227;-26
2023/12/04 05:17:37;;;;;;;8.87;6.90;;;;;;;;;;5024775;28;20234;-27
2023/12/04 05:20:05;;;;;;;8.70;4.97;;;;;;;;;;5028056;28;20202;-28
2023/12/04 05:22:32;;;;;;;8.93;5.97;;;;;;;;;;5022294;28;20213;-30
2023/12/04 05:24:59;;;;;;;9.17;5.60;;;;;;;;;;5028549;28;20835;-28
2023/12/04 05:27:26;;;;;;;8.10;5.27;;;;;;;;;;5028791;28;20198;-28
2023/12/04 05:29:54;;;;;;;7.67;5.63;;;;;;;;;;5021392;28;20218;-27
2023/12/04 05:32:21;;;;;;;7.67;5.30;;;;;;;;;;5017413;28;20242;-27
2023/12/04 05:34:49;;;;;;;9.93;5.20;;;;;;;;;;5027442;28;20309;-27
2023/12/04 05:37:16;;;;;;;7.60;5.03;;;;;;;;;;5014717;28;20202;-29
2023/12/04 05:39:44;;;;;;;7.70;5.20;;;;;;;;;;5021188;28;20237;-27
2023/12/04 05:42:11;;;;;;;8.20;4.83;;;;;;;;;;5028359;28;20283;-29
2023/12/04 05:44:38;;;;;;;8.57;5.57;;;;;;;;;;5027645;28;20257;-28
2023/12/04 05:47:08;;;;;;;10.43;6.27;;;;;;;;;;5023929;28;20209;-30
2023/12/04 05:49:35;;;;;;;9.97;6.10;;;;;;;;;;5030557;28;20226;-29
2023/12/04 05:52:03;;;;;;;10.07;6.43;;;;;;;;;;5026656;28;20236;-28
2023/12/04 05:54:31;;;;;;;10.33;6.37;;;;;;;;;;5032370;28;20226;-28
2023/12/04 05:56:58;;;;;;;10.30;6.03;;;;;;;;;;5034832;28;20302;-28
2023/12/04 05:59:25;;;;;;;9.97;5.60;;;;;;;;;;5030866;28;20213;-26
2023/12/04 06:01:52;;;;;;;10.97;6.30;;;;;;;;;;5031741;28;20214;-26
2023/12/04 06:04:19;;;;;;;9.33;5.73;;;;;;;;;;5031915;28;20723;-28
2023/12/04 06:06:46;;;;;;;9.17;5.80;;;;;;;;;;5018191;28;20207;-27
2023/12/04 06:09:16;;;;;;;8.60;5.83;;;;;;;;;;5031205;28;20212;-28
2023/12/04 06:11:43;;;;;;;12.63;6.47;;;;;;;;;;5031642;28;20230;-27
2023/12/04 06:14:10;;;;;;;10.40;6.53;;;;;;;;;;5028832;28;20276;-27
2023/12/04 06:16:38;;;;;;;10.43;5.97;;;;;;;;;;5023117;28;20213;-29
2023/12/04 06:19:05;;;;;;;10.77;5.87;;;;;;;;;;5031541;28;20214;-28
2023/12/04 06:21:32;;;;;;;13.43;8.27;;;;;;;;;;5024333;28;20226;-27
2023/12/04 06:24:00;;;;;;;10.60;5.20;;;;;;;;;;5031493;28;20222;-28
2023/12/04 06:26:29;;;;;;;9.90;6.40;;;;;;;;;;5031466;28;20604;-26
2023/12/04 06:28:56;;;;;;;10.97;5.63;;;;;;;;;;5020517;28;20213;-28
2023/12/04 06:31:23;;;;;;;9.53;5.83;;;;;;;;;;5024948;28;20705;-28
2023/12/04 06:33:51;;;;;;;10.80;6.60;;;;;;;;;;5030850;28;20245;-27
2023/12/04 06:36:19;;;;;;;9.87;6.03;;;;;;;;;;5021263;28;20206;-27
2023/12/04 06:38:48;;;;;;;9.77;5.90;;;;;;;;;;5029968;28;20207;-27
2023/12/04 06:41:17;;;;;;;10.70;5.90;;;;;;;;;;5031342;28;20191;-30
2023/12/04 06:43:46;;;;;;;10.23;6.97;;;;;;;;;;5030811;28;20324;-28
2023/12/04 06:46:14;;;;;;;11.90;6.90;;;;;;;;;;5019106;28;20204;-28
2023/12/04 06:48:42;;;;;;;9.83;5.73;;;;;;;;;;5023460;28;20210;-27
2023/12/04 06:51:09;;;;;;;8.93;5.70;;;;;;;;;;5017216;28;20233;-27
2023/12/04 06:53:36;;;;;;;10.40;6.40;;;;;;;;;;5023702;28;20214;-29
2023/12/04 06:56:05;;;;;;;9.93;5.60;;;;;;;;;;5019276;28;20199;-30
2023/12/04 06:58:32;;;;;;;9.37;6.17;;;;;;;;;;5022738;28;20828;-29
2023/12/04 07:01:01;;;;;;;9.60;6.10;;;;;;;;;;5023147;28;20229;-27
2023/12/04 07:03:29;;;;;;;10.23;6.13;;;;;;;;;;5025013;28;20226;-27
2023/12/04 07:05:56;;;;;;;13.40;7.03;;;;;;;;;;5022160;28;20203;-28
2023/12/04 07:08:23;;;;;;;15.53;7.87;;;;;;;;;;5022779;28;20207;-29
2023/12/04 07:10:50;;;;;;;10.40;6.67;;;;;;;;;;5032694;28;20237;-27
2023/12/04 07:13:17;;;;;;;11.67;6.90;;;;;;;;;;5032914;28;20676;-27
2023/12/04 07:15:44;;;;;;;10.83;6.10;;;;;;;;;;5019242;28;20227;-29
2023/12/04 07:18:13;;;;;;;11.40;6.83;;;;;;;;;;5027259;28;20672;-30
2023/12/04 07:20:40;;;;;;;8.30;6.07;;;;;;;;;;5027801;28;20247;-27
2023/12/04 07:23:07;;;;;;;13.37;6.50;;;;;;;;;;5023902;28;20223;-27
2023/12/04 07:25:34;;;;;;;11.23;6.73;;;;;;;;;;5033843;28;20222;-28
2023/12/04 07:28:01;;;;;;;11.77;7.77;;;;;;;;;;5034182;28;20226;-28
2023/12/04 07:30:29;;;;;;;9.10;4.73;;;;;;;;;;5018630;28;20220;-27
2023/12/04 07:32:56;;;;;;;11.03;5.90;;;;;;;;;;5026864;28;20199;-28
2023/12/04 07:35:24;;;;;;;8.80;6.37;;;;;;;;;;5027002;28;20226;-28
2023/12/04 07:37:52;;;;;;;11.13;6.60;;;;;;;;;;5024472;28;20215;-29
2023/12/04 07:40:21;;;;;;;8.33;5.97;;;;;;;;;;5028608;28;20199;-29
2023/12/04 07:42:48;;;;;;;11.33;5.73;;;;;;;;;;5031078;28;20214;-27
2023/12/04 07:45:15;;;;;;;9.10;5.60;;;;;;;;;;5019462;28;21004;-28
2023/12/04 07:47:42;;;;;;;13.40;7.27;;;;;;;;;;5030614;28;20217;-29
2023/12/04 07:50:10;;;;;;;11.77;6.93;;;;;;;;;;5033325;28;20211;-28
2023/12/04 07:52:38;;;;;;;12.20;7.33;;;;;;;;;;5021980;28;20603;-27
2023/12/04 07:55:06;;;;;;;13.63;7.80;;;;;;;;;;5030572;28;20225;-31
2023/12/04 07:57:33;;;;;;;11.13;6.27;;;;;;;;;;5026969;28;20214;-29
2023/12/04 08:00:00;;;;;;;14.13;7.43;;;;;;;;;;5024762;28;20209;-31
2023/12/04 08:02:27;;;;;;;11.50;6.97;;;;;;;;;;5028309;28;20297;-28
2023/12/04 08:04:55;;;;;;;12.13;7.60;;;;;;;;;;5021421;28;20231;-29
2023/12/04 08:07:22;;;;;;;13.37;7.87;;;;;;;;;;5012693;28;20226;-29
2023/12/04 08:09:50;;;;;;;14.30;10.67;;;;;;;;;;5028637;28;20210;-29
2023/12/04 08:12:17;;;;;;;15.20;10.73;;;;;;;;;;5026272;28;20223;-28
2023/12/04 08:14:46;;;;;;;12.50;7.43;;;;;;;;;;5031083;28;20242;-28
2023/12/04 08:17:14;;;;;;;13.67;8.80;;;;;;;;;;5026386;28;20203;-26
2023/12/04 08:19:41;;;;;;;12.17;7.57;;;;;;;;;;5030912;28;20581;-27
2023/12/04 08:22:09;;;;;;;16.10;11.80;;;;;;;;;;5019049;28;20207;-26
2023/12/04 08:24:36;;;;;;;15.40;8.27;;;;;;;;;;5027782;28;20237;-28
2023/12/04 08:27:04;;;;;;;13.23;7.80;;;;;;;;;;5021141;28;20209;-29
2023/12/04 08:29:31;;;;;;;11.43;7.00;;;;;;;;;;5029395;28;20302;-28
2023/12/04 08:31:58;;;;;;;16.10;10.07;;;;;;;;;;5015013;28;20226;-26
2023/12/04 08:34:26;;;;;;;12.77;8.80;;;;;;;;;;5029141;28;20226;-28
2023/12/04 08:36:53;;;;;;;11.30;9.60;;;;;;;;;;5013032;28;20210;-27
2023/12/04 08:39:20;;;;;;;14.63;7.63;;;;;;;;;;5028838;28;20206;-28
2023/12/04 08:41:47;;;;;;;11.77;7.57;;;;;;;;;;5028929;28;20234;-33
2023/12/04 08:44:15;;;;;;;12.07;8.83;;;;;;;;;;5028706;28;20233;-28
2023/12/04 08:46:43;;;;;;;13.80;9.20;;;;;;;;;;5019183;28;20283;-29
2023/12/04 08:49:10;;;;;;;11.50;8.33;;;;;;;;;;5028480;28;20657;-28
2023/12/04 08:51:37;;;;;;;13.67;9.33;;;;;;;;;;5018825;28;20238;-30
2023/12/04 08:54:05;;;;;;;14.47;8.67;;;;;;;;;;5020943;28;20227;-27
2023/12/04 08:56:32;;;;;;;12.37;7.00;;;;;;;;;;5029158;28;20206;-30
2023/12/04 08:58:59;;;;;;;12.00;7.43;;;;;;;;;;5028528;28;20215;-27
2023/12/04 09:01:27;;;;;;;10.97;7.90;;;;;;;;;;5020860;28;20199;-29
2023/12/04 09:03:55;;;;;;;14.27;8.57;;;;;;;;;;5026783;28;20229;-28
2023/12/04 09:06:23;;;;;;;11.10;7.27;;;;;;;;;;5017871;28;20218;-29
2023/12/04 09:08:50;;;;;;;10.37;6.93;;;;;;;;;;5026085;28;20297;-28
2023/12/04 09:11:17;;;;;;;13.87;8.90;;;;;;;;;;5028644;28;20218;-29
2023/12/04 09:13:44;;;;;;;15.80;9.23;;;;;;;;;;5022301;28;20223;-29
2023/12/04 09:16:11;;;;;;;13.13;7.90;;;;;;;;;;5025320;28;20269;-30
2023/12/04 09:18:40;;;;;;;10.30;6.30;;;;;;;;;;5028671;28;20242;-29
2023/12/04 09:21:08;;;;;;;11.07;7.70;;;;;;;;;;5013100;28;20289;-29
2023/12/04 09:23:35;;;;;;;14.00;8.03;;;;;;;;;;5025850;28;20245;-29
2023/12/04 09:26:02;;;;;;;13.90;8.70;;;;;;;;;;5029656;28;20207;-28
2023/12/04 09:28:29;;;;;;;13.03;8.53;;;;;;;;;;5026741;28;20221;-27
2023/12/04 09:30:56;;;;;;;16.83;9.13;;;;;;;;;;5017031;28;20254;-28
2023/12/04 09:33:23;;;;;;;15.30;8.20;;;;;;;;;;5028283;28;20210;-27
2023/12/04 09:35:52;;;;;;;14.03;8.20;;;;;;;;;;5018859;28;20679;-30
2023/12/04 09:38:19;;;;;;;15.53;8.37;;;;;;;;;;5021368;28;20206;-27
2023/12/04 09:40:46;;;;;;;13.50;8.47;;;;;;;;;;5028249;28;20217;-29
2023/12/04 09:43:13;;;;;;;12.90;8.03;;;;;;;;;;5028282;28;20504;-30
2023/12/04 09:45:41;;;;;;;13.80;8.43;;;;;;;;;;5025519;28;20226;-27
2023/12/04 09:48:09;;;;;;;15.40;8.43;;;;;;;;;;5022612;28;20210;-29
2023/12/04 09:50:37;;;;;;;16.73;8.73;;;;;;;;;;5017643;28;20214;-27
2023/12/04 09:53:08;;;;;;;12.90;8.47;;;;;;;;;;5018524;28;20221;-28
2023/12/04 09:55:36;;;;;;;14.50;8.07;;;;;;;;;;5022131;28;20325;-28
2023/12/04 09:58:03;;;;;;;8.97;6.20;;;;;;;;;;5027976;28;20203;-30
2023/12/04 10:00:32;;;;;;;11.83;7.77;;;;;;;;;;5025320;28;20206;-29
2023/12/04 10:02:59;;;;;;;18.07;8.50;;;;;;;;;;5028259;28;20199;-28
2023/12/04 10:05:27;;;;;;;11.53;7.43;;;;;;;;;;5025373;28;20226;-31
2023/12/04 10:07:54;;;;;;;15.50;8.60;;;;;;;;;;5018846;28;20290;-27
2023/12/04 10:10:22;;;;;;;13.27;8.50;;;;;;;;;;5027412;28;20210;-27
2023/12/04 10:12:49;;;;;;;15.60;8.20;;;;;;;;;;5029882;28;20560;-29
2023/12/04 10:15:17;;;;;;;14.80;8.73;;;;;;;;;;5022300;28;20226;-27
2023/12/04 10:17:45;;;;;;;19.00;10.37;;;;;;;;;;5022800;28;20214;-28
2023/12/04 10:20:23;;;;;;;16.27;9.33;;;;;;;;;;5024586;28;20210;-27
2023/12/04 10:22:55;;;;;;;16.30;9.20;;;;;;;;;;5019028;28;20210;-28
2023/12/04 10:25:25;;;;;;;15.50;8.37;;;;;;;;;;5024877;28;20717;-27
2023/12/04 10:27:52;;;;;;;13.77;8.17;;;;;;;;;;5020382;28;20297;-29
2023/12/04 10:30:26;;;;;;;15.80;8.33;;;;;;;;;;5016206;28;20214;-28
2023/12/04 10:33:00;;;;;;;13.50;8.77;;;;;;;;;;5023644;28;20226;-28
2023/12/04 10:35:27;;;;;;;16.97;8.90;;;;;;;;;;5028110;28;20229;-31
2023/12/04 10:37:55;;;;;;;12.90;8.80;;;;;;;;;;5025961;28;20294;-27
2023/12/04 10:40:27;;;;;;;14.07;8.53;;;;;;;;;;5028403;28;20213;-28
2023/12/04 10:43:11;;;;;;;16.40;9.17;;;;;;;;;;5026019;28;20209;-28
2023/12/04 10:45:39;;;;;;;13.43;7.40;;;;;;;;;;5025395;28;20229;-28
2023/12/04 10:48:06;;;;;;;14.10;8.63;;;;;;;;;;5022451;28;20296;-30
2023/12/04 10:50:33;;;;;;;15.47;9.03;;;;;;;;;;5024890;28;20566;-27
2023/12/04 10:53:02;;;;;;;15.43;9.23;;;;;;;;;;5021685;28;20692;-27
2023/12/04 10:55:30;;;;;;;15.73;9.37;;;;;;;;;;5034129;28;20222;-29
2023/12/04 10:57:58;;;;;;;16.63;8.83;;;;;;;;;;5034143;28;20218;-29
2023/12/04 11:00:25;;;;;;;14.83;8.43;;;;;;;;;;5029234;28;20222;-27
2023/12/04 11:02:54;;;;;;;14.93;8.60;;;;;;;;;;5032190;28;20213;-26
2023/12/04 11:05:25;;;;;;;14.47;8.07;;;;;;;;;;5029634;28;21010;-28
2023/12/04 11:07:53;;;;;;;15.90;10.07;;;;;;;;;;5022093;28;20715;-28
2023/12/04 11:10:23;;;;;;;13.73;8.20;;;;;;;;;;5031407;28;20264;-28
2023/12/04 11:12:55;;;;;;;12.10;7.80;;;;;;;;;;5034351;28;20309;-27
2023/12/04 11:15:23;;;;;;;15.73;8.07;;;;;;;;;;5024711;28;20234;-29
2023/12/04 11:17:54;;;;;;;13.00;8.30;;;;;;;;;;5031782;28;20207;-28
2023/12/04 11:20:22;;;;;;;14.13;8.37;;;;;;;;;;5033126;28;20207;-27
2023/12/04 11:22:50;;;;;;;14.20;8.33;;;;;;;;;;5029200;28;20199;-28
2023/12/04 11:25:17;;;;;;;13.83;8.47;;;;;;;;;;5033810;28;20409;-28
2023/12/04 11:27:45;;;;;;;16.67;9.60;;;;;;;;;;5033569;28;20213;-28
2023/12/04 11:30:14;;;;;;;14.40;8.90;;;;;;;;;;5033069;28;20205;-27
2023/12/04 11:32:46;;;;;;;16.73;8.77;;;;;;;;;;5024727;28;20225;-27
2023/12/04 11:35:14;;;;;;;17.00;9.70;;;;;;;;;;5030436;28;20227;-27
2023/12/04 11:37:43;;;;;;;14.97;9.27;;;;;;;;;;5015326;28;20214;-28
2023/12/04 11:40:12;;;;;;;15.83;10.13;;;;;;;;;;5028693;28;20417;-28
2023/12/04 11:42:40;;;;;;;14.80;9.30;;;;;;;;;;5029602;28;20289;-27
2023/12/04 11:45:07;;;;;;;15.73;9.63;;;;;;;;;;5025080;28;20229;-28
2023/12/04 11:47:49;;;;;;;17.97;10.10;;;;;;;;;;5022944;28;20210;-27
2023/12/04 11:50:19;;;;;;;16.67;9.63;;;;;;;;;;5020758;28;20580;-28
2023/12/04 11:52:48;;;;;;;18.57;10.17;;;;;;;;;;5018851;28;20235;-26
2023/12/04 11:55:17;;;;;;;17.50;10.70;;;;;;;;;;5028815;28;20230;-31
2023/12/04 11:57:45;;;;;;;13.57;7.03;;;;;;;;;;5030035;28;20574;-27
2023/12/04 12:00:16;;;;;;;18.60;10.23;;;;;;;;;;5018277;28;20217;-29
2023/12/04 12:02:48;;;;;;;23.67;11.20;;;;;;;;;;5026655;28;20235;-29
2023/12/04 12:05:16;;;;;;;17.80;10.10;;;;;;;;;;5032852;28;20238;-28
2023/12/04 12:07:44;;;;;;;17.43;9.37;;;;;;;;;;5026023;28;20218;-29
2023/12/04 12:10:13;;;;;;;23.77;11.27;;;;;;;;;;5032204;28;20203;-26
2023/12/04 12:12:40;;;;;;;17.33;10.60;;;;;;;;;;5032221;28;20226;-28
2023/12/04 12:15:10;;;;;;;20.83;11.43;;;;;;;;;;5028573;28;20233;-28
2023/12/04 12:17:37;;;;;;;21.10;11.83;;;;;;;;;;5027258;28;20202;-29
2023/12/04 12:20:06;;;;;;;18.50;10.23;;;;;;;;;;5031441;28;20198;-27
2023/12/04 12:22:33;;;;;;;18.83;10.13;;;;;;;;;;5019752;28;20252;-28
2023/12/04 12:25:02;;;;;;;18.53;10.67;;;;;;;;;;5031501;28;20230;-28
2023/12/04 12:27:32;;;;;;;19.07;10.47;;;;;;;;;;5031675;28;20234;-28
2023/12/04 12:29:59;;;;;;;19.17;10.70;;;;;;;;;;5020662;28;20216;-29
2023/12/04 12:32:27;;;;;;;22.00;13.50;;;;;;;;;;5023086;28;20696;-29
2023/12/04 12:34:55;;;;;;;21.03;11.73;;;;;;;;;;5029947;28;20321;-27
2023/12/04 12:37:22;;;;;;;16.57;10.23;;;;;;;;;;5031548;28;20203;-26
2023/12/04 12:39:50;;;;;;;21.20;11.33;;;;;;;;;;5022360;28;20977;-29
2023/12/04 12:42:23;;;;;;;18.23;10.80;;;;;;;;;;5022867;28;20573;-28
2023/12/04 12:44:51;;;;;;;22.03;11.77;;;;;;;;;;5031648;28;20234;-26
2023/12/04 12:47:18;;;;;;;20.73;11.90;;;;;;;;;;5030825;28;20211;-26
2023/12/04 12:49:45;;;;;;;18.23;10.20;;;;;;;;;;5023650;28;20207;-27
2023/12/04 12:52:12;;;;;;;18.80;11.43;;;;;;;;;;5020431;28;20318;-31
2023/12/04 12:54:39;;;;;;;17.83;10.67;;;;;;;;;;5021712;28;20229;-29
2023/12/04 12:57:07;;;;;;;22.23;10.93;;;;;;;;;;5021251;28;20220;-27
2023/12/04 12:59:36;;;;;;;16.43;9.47;;;;;;;;;;5016596;28;20260;-28
2023/12/04 13:02:03;;;;;;;18.43;10.93;;;;;;;;;;5026382;28;20202;-30
2023/12/04 13:04:35;;;;;;;20.73;11.50;;;;;;;;;;5028556;28;20226;-28
2023/12/04 13:07:03;;;;;;;19.57;10.43;;;;;;;;;;5022188;28;20657;-27
2023/12/04 13:09:30;;;;;;;20.83;11.93;;;;;;;;;;5029668;28;20207;-29
2023/12/04 13:11:58;;;;;;;22.80;12.37;;;;;;;;;;5028775;28;20230;-27
2023/12/04 13:14:25;;;;;;;21.47;11.60;;;;;;;;;;5028501;28;20226;-29
2023/12/04 13:16:54;;;;;;;20.47;11.27;;;;;;;;;;5019827;28;20213;-28
2023/12/04 13:19:21;;;;;;;22.50;11.10;;;;;;;;;;5023927;28;20305;-28
2023/12/04 13:21:48;;;;;;;20.50;10.93;;;;;;;;;;5018209;28;20215;-29
2023/12/04 13:24:16;;;;;;;16.87;10.20;;;;;;;;;;5017567;28;20273;-27
2023/12/04 13:26:43;;;;;;;18.57;10.93;;;;;;;;;;5018656;28;20204;-27
2023/12/04 13:29:10;;;;;;;19.67;10.90;;;;;;;;;;5018100;28;20664;-28
2023/12/04 13:31:37;;;;;;;16.47;10.10;;;;;;;;;;5014586;28;20203;-31
2023/12/04 13:34:06;;;;;;;17.37;11.67;;;;;;;;;;5027029;28;20261;-28
2023/12/04 13:36:34;;;;;;;20.13;11.57;;;;;;;;;;5022574;28;20693;-26
2023/12/04 13:39:01;;;;;;;21.80;12.30;;;;;;;;;;5023424;28;20694;-29
2023/12/04 13:44:15;;;;;;;19.47;10.70;;;;;;;;;;5027385;28;20233;-28
2023/12/04 13:46:42;;;;;;;18.50;10.60;;;;;;;;;;5016474;28;20271;-29
2023/12/04 13:49:10;;;;;;;20.13;11.20;;;;;;;;;;5024082;28;20323;-28
2023/12/04 13:51:40;;;;;;;15.60;9.30;;;;;;;;;;5023268;28;20222;-29
2023/12/04 13:54:20;;;;;;;18.23;10.07;;;;;;;;;;5021714;28;20289;-27
2023/12/04 13:56:53;;;;;;;19.23;10.73;;;;;;;;;;5031100;28;20285;-27
2023/12/04 13:59:19;;;;;;;19.80;11.80;;;;;;;;;;5028840;28;20214;-27
2023/12/04 14:01:47;;;;;;;19.30;12.07;;;;;;;;;;5021936;28;20221;-28
2023/12/04 14:04:16;;;;;;;20.13;10.23;;;;;;;;;;5020449;28;20219;-27
2023/12/04 14:06:43;;;;;;;19.00;9.97;;;;;;;;;;5023772;28;20256;-29
2023/12/04 14:09:14;;;;;;;20.10;12.27;;;;;;;;;;5028904;28;20214;-27
2023/12/04 14:11:41;;;;;;;23.97;12.13;;;;;;;;;;5034646;28;20218;-28
2023/12/04 14:14:08;;;;;;;20.30;11.60;;;;;;;;;;5029414;28;20231;-29
2023/12/04 14:16:35;;;;;;;18.07;11.30;;;;;;;;;;5017995;28;20668;-26
2023/12/04 14:19:03;;;;;;;18.90;11.33;;;;;;;;;;5032972;28;20297;-29
2023/12/04 14:21:31;;;;;;;16.10;10.10;;;;;;;;;;5019449;28;20238;-29
2023/12/04 14:23:58;;;;;;;20.57;12.17;;;;;;;;;;5030661;28;20233;-27
2023/12/04 14:26:25;;;;;;;20.77;11.37;;;;;;;;;;5034865;28;20210;-30
2023/12/04 14:28:52;;;;;;;18.27;11.03;;;;;;;;;;5031979;28;20203;-27
2023/12/04 14:31:20;;;;;;;20.07;11.53;;;;;;;;;;5027287;28;20213;-29
2023/12/04 14:33:47;;;;;;;21.10;11.13;;;;;;;;;;5033485;28;20243;-29
2023/12/04 14:36:15;;;;;;;19.13;11.67;;;;;;;;;;5027276;28;20208;-28